Weather at Baltiysk Air Base [CLOSED]

Public forecast

Using degrees Celsius for public forecast. Weather courtesy of forecast.io.

Closest aviation weather report (METAR) to Baltiysk Air Base

Closest report is Khrabrovo Airport, 30.2 nm (55.9 km) NE. Retrieved 2021/06/13 10:30 UTC (56 seconds ago):

UMKK 131030Z 32008MPS CAVOK 19/13 Q1014 R24/CLRD95 NOSIG RMK QFE759/1012

Closest aviation forecast (TAF) to Baltiysk Air Base

Closest forecast is Khrabrovo Airport, 30.2 nm (55.9 km) NE. Retrieved 2021/06/13 09:26 UTC (1 hour ago):

TAF UMKK 130753Z 1309/1409 33010G16MPS 9999 SCT016CB BECMG 1316/1318 34005G10MPS BECMG 1322/1324 VRB01MPS FEW020